sensor_id;sensor_type;location;lat;lon;timestamp;P1;durP1;ratioP1;P2;durP2;ratioP2
20657;SDS011;10488;50.846;4.078;2023-03-09T00:01:31;27.27;;;14.68;;
20657;SDS011;10488;50.846;4.078;2023-03-09T00:03:58;30.73;;;16.27;;
20657;SDS011;10488;50.846;4.078;2023-03-09T00:06:25;28.70;;;15.45;;
20657;SDS011;10488;50.846;4.078;2023-03-09T00:08:51;25.03;;;15.03;;
20657;SDS011;10488;50.846;4.078;2023-03-09T00:11:17;25.80;;;14.03;;
20657;SDS011;10488;50.846;4.078;2023-03-09T00:13:44;26.58;;;14.60;;
20657;SDS011;10488;50.846;4.078;2023-03-09T00:18:41;24.13;;;15.50;;
20657;SDS011;10488;50.846;4.078;2023-03-09T00:21:07;25.88;;;14.43;;
20657;SDS011;10488;50.846;4.078;2023-03-09T00:23:39;23.63;;;15.02;;
20657;SDS011;10488;50.846;4.078;2023-03-09T00:26:06;26.87;;;14.53;;
20657;SDS011;10488;50.846;4.078;2023-03-09T00:28:32;20.95;;;12.88;;
20657;SDS011;10488;50.846;4.078;2023-03-09T00:31:05;23.43;;;13.90;;
20657;SDS011;10488;50.846;4.078;2023-03-09T00:33:31;27.10;;;14.73;;
20657;SDS011;10488;50.846;4.078;2023-03-09T00:35:57;20.83;;;12.73;;
20657;SDS011;10488;50.846;4.078;2023-03-09T00:38:23;24.17;;;13.68;;
20657;SDS011;10488;50.846;4.078;2023-03-09T00:40:50;24.13;;;13.77;;
20657;SDS011;10488;50.846;4.078;2023-03-09T00:43:16;29.58;;;15.38;;
20657;SDS011;10488;50.846;4.078;2023-03-09T00:45:41;28.70;;;14.98;;
20657;SDS011;10488;50.846;4.078;2023-03-09T00:48:07;33.00;;;17.03;;
20657;SDS011;10488;50.846;4.078;2023-03-09T00:50:33;29.47;;;16.50;;
20657;SDS011;10488;50.846;4.078;2023-03-09T00:52:58;33.10;;;17.87;;
20657;SDS011;10488;50.846;4.078;2023-03-09T00:55:24;33.33;;;17.95;;
20657;SDS011;10488;50.846;4.078;2023-03-09T00:57:50;32.83;;;17.20;;
20657;SDS011;10488;50.846;4.078;2023-03-09T01:00:15;34.63;;;18.00;;
20657;SDS011;10488;50.846;4.078;2023-03-09T01:02:41;43.33;;;21.57;;
20657;SDS011;10488;50.846;4.078;2023-03-09T01:05:08;40.10;;;20.13;;
20657;SDS011;10488;50.846;4.078;2023-03-09T01:07:35;39.95;;;21.33;;
20657;SDS011;10488;50.846;4.078;2023-03-09T01:10:01;43.63;;;21.35;;
20657;SDS011;10488;50.846;4.078;2023-03-09T01:12:27;48.10;;;21.60;;
20657;SDS011;10488;50.846;4.078;2023-03-09T01:14:53;54.33;;;23.70;;
20657;SDS011;10488;50.846;4.078;2023-03-09T01:17:20;50.27;;;24.20;;
20657;SDS011;10488;50.846;4.078;2023-03-09T01:19:46;53.83;;;24.63;;
20657;SDS011;10488;50.846;4.078;2023-03-09T01:22:11;55.03;;;25.60;;
20657;SDS011;10488;50.846;4.078;2023-03-09T01:24:37;53.22;;;23.67;;
20657;SDS011;10488;50.846;4.078;2023-03-09T01:27:03;60.63;;;25.90;;
20657;SDS011;10488;50.846;4.078;2023-03-09T01:29:30;56.27;;;24.70;;
20657;SDS011;10488;50.846;4.078;2023-03-09T01:31:55;52.17;;;22.73;;
20657;SDS011;10488;50.846;4.078;2023-03-09T01:34:21;57.30;;;25.40;;
20657;SDS011;10488;50.846;4.078;2023-03-09T01:36:47;56.37;;;25.87;;
20657;SDS011;10488;50.846;4.078;2023-03-09T01:39:12;59.10;;;25.57;;
20657;SDS011;10488;50.846;4.078;2023-03-09T01:41:38;54.88;;;24.20;;
20657;SDS011;10488;50.846;4.078;2023-03-09T01:44:04;52.10;;;24.40;;
20657;SDS011;10488;50.846;4.078;2023-03-09T01:51:55;61.70;;;26.97;;
20657;SDS011;10488;50.846;4.078;2023-03-09T01:54:48;58.95;;;25.65;;
20657;SDS011;10488;50.846;4.078;2023-03-09T01:57:24;55.57;;;25.10;;
20657;SDS011;10488;50.846;4.078;2023-03-09T02:00:02;54.75;;;25.73;;
20657;SDS011;10488;50.846;4.078;2023-03-09T02:02:40;49.75;;;23.73;;
20657;SDS011;10488;50.846;4.078;2023-03-09T02:05:14;60.72;;;26.17;;
20657;SDS011;10488;50.846;4.078;2023-03-09T02:08:09;55.88;;;24.92;;
20657;SDS011;10488;50.846;4.078;2023-03-09T02:10:37;62.93;;;25.23;;
20657;SDS011;10488;50.846;4.078;2023-03-09T02:13:10;63.13;;;27.00;;
20657;SDS011;10488;50.846;4.078;2023-03-09T02:15:38;53.60;;;25.10;;
20657;SDS011;10488;50.846;4.078;2023-03-09T02:18:04;62.53;;;24.80;;
20657;SDS011;10488;50.846;4.078;2023-03-09T02:21:20;62.00;;;26.03;;
20657;SDS011;10488;50.846;4.078;2023-03-09T02:26:15;56.17;;;26.45;;
20657;SDS011;10488;50.846;4.078;2023-03-09T02:28:49;60.67;;;24.73;;
20657;SDS011;10488;50.846;4.078;2023-03-09T02:31:15;68.77;;;27.37;;
20657;SDS011;10488;50.846;4.078;2023-03-09T02:33:42;54.03;;;24.83;;
20657;SDS011;10488;50.846;4.078;2023-03-09T02:36:09;55.03;;;25.37;;
20657;SDS011;10488;50.846;4.078;2023-03-09T02:38:35;59.97;;;26.13;;
20657;SDS011;10488;50.846;4.078;2023-03-09T02:41:01;56.05;;;23.65;;
20657;SDS011;10488;50.846;4.078;2023-03-09T02:43:33;45.08;;;20.50;;
20657;SDS011;10488;50.846;4.078;2023-03-09T02:46:01;58.93;;;23.37;;
20657;SDS011;10488;50.846;4.078;2023-03-09T02:48:27;56.77;;;23.30;;
20657;SDS011;10488;50.846;4.078;2023-03-09T02:50:53;50.73;;;22.40;;
20657;SDS011;10488;50.846;4.078;2023-03-09T02:53:18;51.57;;;22.23;;
20657;SDS011;10488;50.846;4.078;2023-03-09T02:55:44;59.80;;;22.45;;
20657;SDS011;10488;50.846;4.078;2023-03-09T02:58:10;56.87;;;24.10;;
20657;SDS011;10488;50.846;4.078;2023-03-09T03:00:36;55.38;;;23.45;;
20657;SDS011;10488;50.846;4.078;2023-03-09T03:03:02;59.60;;;24.63;;
20657;SDS011;10488;50.846;4.078;2023-03-09T03:05:28;55.30;;;23.27;;
20657;SDS011;10488;50.846;4.078;2023-03-09T03:07:53;50.17;;;22.60;;
20657;SDS011;10488;50.846;4.078;2023-03-09T03:10:19;52.70;;;22.13;;
20657;SDS011;10488;50.846;4.078;2023-03-09T03:12:45;58.80;;;23.30;;
20657;SDS011;10488;50.846;4.078;2023-03-09T03:15:10;54.30;;;23.07;;
20657;SDS011;10488;50.846;4.078;2023-03-09T03:17:37;68.87;;;25.00;;
20657;SDS011;10488;50.846;4.078;2023-03-09T03:20:03;46.30;;;21.97;;
20657;SDS011;10488;50.846;4.078;2023-03-09T03:22:30;48.63;;;20.87;;
20657;SDS011;10488;50.846;4.078;2023-03-09T03:24:56;49.67;;;20.37;;
20657;SDS011;10488;50.846;4.078;2023-03-09T03:27:21;47.35;;;19.95;;
20657;SDS011;10488;50.846;4.078;2023-03-09T03:29:50;46.00;;;18.33;;
20657;SDS011;10488;50.846;4.078;2023-03-09T03:32:16;38.80;;;18.85;;
20657;SDS011;10488;50.846;4.078;2023-03-09T03:34:43;43.43;;;19.03;;
20657;SDS011;10488;50.846;4.078;2023-03-09T03:37:09;40.23;;;17.30;;
20657;SDS011;10488;50.846;4.078;2023-03-09T03:39:34;41.33;;;18.93;;
20657;SDS011;10488;50.846;4.078;2023-03-09T03:42:00;39.17;;;19.00;;
20657;SDS011;10488;50.846;4.078;2023-03-09T03:44:26;37.47;;;17.97;;
20657;SDS011;10488;50.846;4.078;2023-03-09T03:46:52;43.97;;;19.27;;
20657;SDS011;10488;50.846;4.078;2023-03-09T03:49:18;44.63;;;19.37;;
20657;SDS011;10488;50.846;4.078;2023-03-09T03:51:43;42.27;;;17.93;;
20657;SDS011;10488;50.846;4.078;2023-03-09T03:54:09;43.53;;;17.88;;
20657;SDS011;10488;50.846;4.078;2023-03-09T03:56:34;39.47;;;17.90;;
20657;SDS011;10488;50.846;4.078;2023-03-09T03:59:00;35.63;;;17.13;;
20657;SDS011;10488;50.846;4.078;2023-03-09T04:01:26;39.43;;;18.07;;
20657;SDS011;10488;50.846;4.078;2023-03-09T04:03:51;37.23;;;17.30;;
20657;SDS011;10488;50.846;4.078;2023-03-09T04:06:17;37.40;;;17.40;;
20657;SDS011;10488;50.846;4.078;2023-03-09T04:08:43;40.73;;;18.80;;
20657;SDS011;10488;50.846;4.078;2023-03-09T04:11:09;39.30;;;16.77;;
20657;SDS011;10488;50.846;4.078;2023-03-09T04:13:34;38.30;;;17.53;;
20657;SDS011;10488;50.846;4.078;2023-03-09T04:16:00;35.60;;;17.27;;
20657;SDS011;10488;50.846;4.078;2023-03-09T04:18:26;36.90;;;17.85;;
20657;SDS011;10488;50.846;4.078;2023-03-09T04:20:51;36.90;;;17.47;;
20657;SDS011;10488;50.846;4.078;2023-03-09T04:23:17;41.90;;;19.23;;
20657;SDS011;10488;50.846;4.078;2023-03-09T04:25:42;37.63;;;18.02;;
20657;SDS011;10488;50.846;4.078;2023-03-09T04:28:08;41.00;;;17.73;;
20657;SDS011;10488;50.846;4.078;2023-03-09T04:30:34;44.63;;;18.67;;
20657;SDS011;10488;50.846;4.078;2023-03-09T04:32:59;44.63;;;20.20;;
20657;SDS011;10488;50.846;4.078;2023-03-09T04:35:25;45.53;;;20.30;;
20657;SDS011;10488;50.846;4.078;2023-03-09T04:37:51;45.90;;;20.73;;
20657;SDS011;10488;50.846;4.078;2023-03-09T04:40:17;48.90;;;21.40;;
20657;SDS011;10488;50.846;4.078;2023-03-09T04:42:43;46.27;;;21.40;;
20657;SDS011;10488;50.846;4.078;2023-03-09T04:45:09;47.60;;;21.47;;
20657;SDS011;10488;50.846;4.078;2023-03-09T04:47:35;51.57;;;21.90;;
20657;SDS011;10488;50.846;4.078;2023-03-09T04:50:00;50.90;;;21.85;;
20657;SDS011;10488;50.846;4.078;2023-03-09T04:52:26;61.37;;;24.60;;
20657;SDS011;10488;50.846;4.078;2023-03-09T04:54:52;54.22;;;23.35;;
20657;SDS011;10488;50.846;4.078;2023-03-09T04:57:19;50.60;;;22.43;;
20657;SDS011;10488;50.846;4.078;2023-03-09T04:59:45;61.03;;;23.48;;
20657;SDS011;10488;50.846;4.078;2023-03-09T05:02:10;56.17;;;24.60;;
20657;SDS011;10488;50.846;4.078;2023-03-09T05:04:36;60.13;;;23.27;;
20657;SDS011;10488;50.846;4.078;2023-03-09T05:07:02;57.97;;;23.03;;
20657;SDS011;10488;50.846;4.078;2023-03-09T05:09:28;57.43;;;23.43;;
20657;SDS011;10488;50.846;4.078;2023-03-09T05:11:53;52.80;;;21.40;;
20657;SDS011;10488;50.846;4.078;2023-03-09T05:14:19;44.73;;;19.63;;
20657;SDS011;10488;50.846;4.078;2023-03-09T05:16:45;48.70;;;20.88;;
20657;SDS011;10488;50.846;4.078;2023-03-09T05:19:13;45.57;;;20.47;;
20657;SDS011;10488;50.846;4.078;2023-03-09T05:21:38;46.20;;;20.30;;
20657;SDS011;10488;50.846;4.078;2023-03-09T05:24:04;47.70;;;20.63;;
20657;SDS011;10488;50.846;4.078;2023-03-09T05:26:30;48.60;;;20.02;;
20657;SDS011;10488;50.846;4.078;2023-03-09T05:28:56;49.30;;;21.30;;
20657;SDS011;10488;50.846;4.078;2023-03-09T05:31:21;49.37;;;20.77;;
20657;SDS011;10488;50.846;4.078;2023-03-09T05:33:47;48.37;;;19.97;;
20657;SDS011;10488;50.846;4.078;2023-03-09T05:36:15;47.53;;;20.85;;
20657;SDS011;10488;50.846;4.078;2023-03-09T05:38:45;43.70;;;20.25;;
20657;SDS011;10488;50.846;4.078;2023-03-09T05:41:11;43.40;;;19.60;;
20657;SDS011;10488;50.846;4.078;2023-03-09T05:43:37;45.65;;;18.75;;
20657;SDS011;10488;50.846;4.078;2023-03-09T05:46:07;46.93;;;19.70;;
20657;SDS011;10488;50.846;4.078;2023-03-09T05:48:36;42.40;;;19.87;;
20657;SDS011;10488;50.846;4.078;2023-03-09T05:51:03;44.15;;;19.38;;
20657;SDS011;10488;50.846;4.078;2023-03-09T05:53:30;42.88;;;19.58;;
20657;SDS011;10488;50.846;4.078;2023-03-09T05:55:57;44.83;;;19.43;;
20657;SDS011;10488;50.846;4.078;2023-03-09T05:58:23;47.40;;;20.20;;
20657;SDS011;10488;50.846;4.078;2023-03-09T06:00:49;45.83;;;19.60;;
20657;SDS011;10488;50.846;4.078;2023-03-09T06:03:15;45.93;;;20.10;;
20657;SDS011;10488;50.846;4.078;2023-03-09T06:05:40;47.95;;;20.63;;
20657;SDS011;10488;50.846;4.078;2023-03-09T06:08:06;45.13;;;19.57;;
20657;SDS011;10488;50.846;4.078;2023-03-09T06:10:33;48.83;;;19.53;;
20657;SDS011;10488;50.846;4.078;2023-03-09T06:13:00;46.20;;;18.30;;
20657;SDS011;10488;50.846;4.078;2023-03-09T06:15:26;39.63;;;17.00;;
20657;SDS011;10488;50.846;4.078;2023-03-09T06:17:51;36.33;;;16.87;;
20657;SDS011;10488;50.846;4.078;2023-03-09T06:20:17;41.80;;;17.27;;
20657;SDS011;10488;50.846;4.078;2023-03-09T06:22:43;37.73;;;17.43;;
20657;SDS011;10488;50.846;4.078;2023-03-09T06:25:09;41.73;;;17.13;;
20657;SDS011;10488;50.846;4.078;2023-03-09T06:27:36;37.37;;;17.03;;
20657;SDS011;10488;50.846;4.078;2023-03-09T06:30:01;37.27;;;15.60;;
20657;SDS011;10488;50.846;4.078;2023-03-09T06:32:30;37.20;;;16.73;;
20657;SDS011;10488;50.846;4.078;2023-03-09T06:34:57;37.93;;;16.43;;
20657;SDS011;10488;50.846;4.078;2023-03-09T06:37:23;35.93;;;16.97;;
20657;SDS011;10488;50.846;4.078;2023-03-09T06:39:48;34.50;;;16.70;;
20657;SDS011;10488;50.846;4.078;2023-03-09T06:42:14;38.53;;;17.87;;
20657;SDS011;10488;50.846;4.078;2023-03-09T06:44:40;45.10;;;18.60;;
20657;SDS011;10488;50.846;4.078;2023-03-09T06:47:07;45.45;;;19.58;;
20657;SDS011;10488;50.846;4.078;2023-03-09T06:49:33;34.97;;;17.40;;
20657;SDS011;10488;50.846;4.078;2023-03-09T06:52:00;42.88;;;19.75;;
20657;SDS011;10488;50.846;4.078;2023-03-09T06:54:25;47.38;;;20.88;;
20657;SDS011;10488;50.846;4.078;2023-03-09T06:56:51;44.88;;;20.23;;
20657;SDS011;10488;50.846;4.078;2023-03-09T06:59:17;45.43;;;19.93;;
20657;SDS011;10488;50.846;4.078;2023-03-09T07:01:43;46.87;;;20.63;;
20657;SDS011;10488;50.846;4.078;2023-03-09T07:04:09;43.23;;;19.33;;
20657;SDS011;10488;50.846;4.078;2023-03-09T07:06:34;43.17;;;19.13;;
20657;SDS011;10488;50.846;4.078;2023-03-09T07:09:00;42.33;;;20.30;;
20657;SDS011;10488;50.846;4.078;2023-03-09T07:11:26;44.50;;;20.57;;
20657;SDS011;10488;50.846;4.078;2023-03-09T07:13:51;45.73;;;20.20;;
20657;SDS011;10488;50.846;4.078;2023-03-09T07:16:17;53.60;;;20.53;;
20657;SDS011;10488;50.846;4.078;2023-03-09T07:18:42;49.37;;;19.93;;
20657;SDS011;10488;50.846;4.078;2023-03-09T07:21:08;48.40;;;20.25;;
20657;SDS011;10488;50.846;4.078;2023-03-09T07:23:34;49.67;;;20.63;;
20657;SDS011;10488;50.846;4.078;2023-03-09T07:26:01;48.33;;;20.47;;
20657;SDS011;10488;50.846;4.078;2023-03-09T07:28:28;49.10;;;21.33;;
20657;SDS011;10488;50.846;4.078;2023-03-09T07:30:54;47.72;;;20.63;;
20657;SDS011;10488;50.846;4.078;2023-03-09T07:33:19;51.10;;;20.73;;
20657;SDS011;10488;50.846;4.078;2023-03-09T07:35:45;47.17;;;21.47;;
20657;SDS011;10488;50.846;4.078;2023-03-09T07:38:11;46.83;;;21.60;;
20657;SDS011;10488;50.846;4.078;2023-03-09T07:40:36;40.65;;;19.17;;
20657;SDS011;10488;50.846;4.078;2023-03-09T07:43:02;42.17;;;19.07;;
20657;SDS011;10488;50.846;4.078;2023-03-09T07:45:28;46.42;;;19.10;;
20657;SDS011;10488;50.846;4.078;2023-03-09T07:47:54;44.65;;;20.02;;
20657;SDS011;10488;50.846;4.078;2023-03-09T07:50:20;47.13;;;17.87;;
20657;SDS011;10488;50.846;4.078;2023-03-09T07:52:46;45.17;;;18.83;;
20657;SDS011;10488;50.846;4.078;2023-03-09T07:55:12;42.80;;;19.38;;
20657;SDS011;10488;50.846;4.078;2023-03-09T07:57:39;41.53;;;19.45;;
20657;SDS011;10488;50.846;4.078;2023-03-09T08:00:11;45.78;;;19.55;;
20657;SDS011;10488;50.846;4.078;2023-03-09T08:02:38;37.10;;;18.85;;
20657;SDS011;10488;50.846;4.078;2023-03-09T08:05:06;61.63;;;31.15;;
20657;SDS011;10488;50.846;4.078;2023-03-09T08:07:33;97.60;;;51.40;;
20657;SDS011;10488;50.846;4.078;2023-03-09T08:09:59;42.45;;;19.58;;
20657;SDS011;10488;50.846;4.078;2023-03-09T08:12:25;42.78;;;20.38;;
20657;SDS011;10488;50.846;4.078;2023-03-09T08:14:50;42.45;;;19.88;;
20657;SDS011;10488;50.846;4.078;2023-03-09T08:17:16;50.33;;;20.98;;
20657;SDS011;10488;50.846;4.078;2023-03-09T08:19:41;45.42;;;21.30;;
20657;SDS011;10488;50.846;4.078;2023-03-09T08:22:07;46.83;;;21.45;;
20657;SDS011;10488;50.846;4.078;2023-03-09T08:24:33;45.08;;;20.67;;
20657;SDS011;10488;50.846;4.078;2023-03-09T08:26:58;42.70;;;21.02;;
20657;SDS011;10488;50.846;4.078;2023-03-09T08:29:24;42.65;;;21.40;;
20657;SDS011;10488;50.846;4.078;2023-03-09T08:31:50;46.53;;;20.38;;
20657;SDS011;10488;50.846;4.078;2023-03-09T08:34:17;42.58;;;19.83;;
20657;SDS011;10488;50.846;4.078;2023-03-09T08:36:44;41.15;;;19.63;;
20657;SDS011;10488;50.846;4.078;2023-03-09T08:39:09;39.58;;;19.25;;
20657;SDS011;10488;50.846;4.078;2023-03-09T08:41:35;42.42;;;18.70;;
20657;SDS011;10488;50.846;4.078;2023-03-09T08:44:01;35.78;;;17.70;;
20657;SDS011;10488;50.846;4.078;2023-03-09T08:46:27;38.97;;;17.55;;
20657;SDS011;10488;50.846;4.078;2023-03-09T08:48:53;35.90;;;16.88;;
20657;SDS011;10488;50.846;4.078;2023-03-09T08:51:18;40.45;;;18.95;;
20657;SDS011;10488;50.846;4.078;2023-03-09T08:53:44;37.85;;;18.10;;
20657;SDS011;10488;50.846;4.078;2023-03-09T08:56:11;44.38;;;18.63;;
20657;SDS011;10488;50.846;4.078;2023-03-09T08:58:37;39.13;;;18.42;;
20657;SDS011;10488;50.846;4.078;2023-03-09T09:01:04;35.90;;;17.48;;
20657;SDS011;10488;50.846;4.078;2023-03-09T09:03:33;39.58;;;18.42;;
20657;SDS011;10488;50.846;4.078;2023-03-09T09:06:03;42.72;;;18.27;;
20657;SDS011;10488;50.846;4.078;2023-03-09T09:08:39;39.20;;;17.73;;
20657;SDS011;10488;50.846;4.078;2023-03-09T09:11:06;38.28;;;18.02;;
20657;SDS011;10488;50.846;4.078;2023-03-09T09:13:33;44.72;;;19.65;;
20657;SDS011;10488;50.846;4.078;2023-03-09T09:15:59;43.35;;;18.55;;
20657;SDS011;10488;50.846;4.078;2023-03-09T09:18:25;36.92;;;18.25;;
20657;SDS011;10488;50.846;4.078;2023-03-09T09:20:51;41.63;;;20.27;;
20657;SDS011;10488;50.846;4.078;2023-03-09T09:23:17;37.38;;;18.17;;
20657;SDS011;10488;50.846;4.078;2023-03-09T09:25:43;36.85;;;17.58;;
20657;SDS011;10488;50.846;4.078;2023-03-09T09:28:08;36.70;;;18.55;;
20657;SDS011;10488;50.846;4.078;2023-03-09T09:30:34;38.85;;;19.25;;
20657;SDS011;10488;50.846;4.078;2023-03-09T09:33:01;36.08;;;18.67;;
20657;SDS011;10488;50.846;4.078;2023-03-09T09:35:30;36.38;;;17.80;;
20657;SDS011;10488;50.846;4.078;2023-03-09T09:37:58;38.70;;;19.10;;
20657;SDS011;10488;50.846;4.078;2023-03-09T09:40:30;34.47;;;16.88;;
20657;SDS011;10488;50.846;4.078;2023-03-09T09:42:56;35.20;;;17.33;;
20657;SDS011;10488;50.846;4.078;2023-03-09T09:45:24;36.88;;;19.25;;
20657;SDS011;10488;50.846;4.078;2023-03-09T09:47:55;35.38;;;17.67;;
20657;SDS011;10488;50.846;4.078;2023-03-09T09:50:27;38.80;;;18.02;;
20657;SDS011;10488;50.846;4.078;2023-03-09T09:53:20;35.78;;;18.40;;
20657;SDS011;10488;50.846;4.078;2023-03-09T09:55:54;37.13;;;18.40;;
20657;SDS011;10488;50.846;4.078;2023-03-09T10:01:04;39.40;;;19.30;;
20657;SDS011;10488;50.846;4.078;2023-03-09T10:03:47;36.40;;;18.88;;
20657;SDS011;10488;50.846;4.078;2023-03-09T10:06:22;40.40;;;19.60;;
20657;SDS011;10488;50.846;4.078;2023-03-09T10:08:54;43.97;;;21.50;;
20657;SDS011;10488;50.846;4.078;2023-03-09T10:14:06;33.55;;;17.52;;
20657;SDS011;10488;50.846;4.078;2023-03-09T10:16:43;38.45;;;20.38;;
20657;SDS011;10488;50.846;4.078;2023-03-09T10:19:22;33.88;;;18.00;;
20657;SDS011;10488;50.846;4.078;2023-03-09T10:21:55;36.90;;;19.23;;
20657;SDS011;10488;50.846;4.078;2023-03-09T10:24:25;36.15;;;19.63;;
20657;SDS011;10488;50.846;4.078;2023-03-09T10:29:26;39.38;;;20.30;;
20657;SDS011;10488;50.846;4.078;2023-03-09T10:31:55;39.08;;;20.75;;
20657;SDS011;10488;50.846;4.078;2023-03-09T10:34:28;40.13;;;19.30;;
20657;SDS011;10488;50.846;4.078;2023-03-09T10:37:00;36.78;;;19.40;;
20657;SDS011;10488;50.846;4.078;2023-03-09T10:39:31;40.00;;;21.23;;
20657;SDS011;10488;50.846;4.078;2023-03-09T10:42:07;34.30;;;19.25;;
20657;SDS011;10488;50.846;4.078;2023-03-09T10:44:43;38.22;;;20.08;;
20657;SDS011;10488;50.846;4.078;2023-03-09T10:47:24;40.17;;;20.13;;
20657;SDS011;10488;50.846;4.078;2023-03-09T10:50:06;39.85;;;20.42;;
20657;SDS011;10488;50.846;4.078;2023-03-09T10:52:35;36.15;;;18.58;;
20657;SDS011;10488;50.846;4.078;2023-03-09T10:55:07;34.00;;;19.98;;
20657;SDS011;10488;50.846;4.078;2023-03-09T11:03:38;35.75;;;18.92;;
20657;SDS011;10488;50.846;4.078;2023-03-09T11:08:38;35.90;;;19.00;;
20657;SDS011;10488;50.846;4.078;2023-03-09T11:11:06;38.55;;;18.48;;
20657;SDS011;10488;50.846;4.078;2023-03-09T11:13:42;34.97;;;19.00;;
20657;SDS011;10488;50.846;4.078;2023-03-09T11:16:19;34.63;;;17.75;;
20657;SDS011;10488;50.846;4.078;2023-03-09T11:19:12;36.15;;;18.75;;
20657;SDS011;10488;50.846;4.078;2023-03-09T11:21:39;32.95;;;18.70;;
20657;SDS011;10488;50.846;4.078;2023-03-09T11:24:16;36.63;;;17.27;;
20657;SDS011;10488;50.846;4.078;2023-03-09T11:26:44;36.47;;;18.15;;
20657;SDS011;10488;50.846;4.078;2023-03-09T11:31:44;29.15;;;16.85;;
20657;SDS011;10488;50.846;4.078;2023-03-09T11:34:25;28.73;;;16.45;;
20657;SDS011;10488;50.846;4.078;2023-03-09T11:40:38;29.35;;;14.13;;
20657;SDS011;10488;50.846;4.078;2023-03-09T11:42:53;29.65;;;15.25;;
20657;SDS011;10488;50.846;4.078;2023-03-09T11:45:33;31.92;;;16.45;;
20657;SDS011;10488;50.846;4.078;2023-03-09T11:48:04;32.33;;;14.30;;
20657;SDS011;10488;50.846;4.078;2023-03-09T11:50:38;32.17;;;15.70;;
20657;SDS011;10488;50.846;4.078;2023-03-09T11:53:18;34.42;;;18.35;;
20657;SDS011;10488;50.846;4.078;2023-03-09T11:58:39;32.92;;;16.20;;
20657;SDS011;10488;50.846;4.078;2023-03-09T12:01:19;33.20;;;12.82;;
20657;SDS011;10488;50.846;4.078;2023-03-09T12:03:58;32.55;;;11.18;;
20657;SDS011;10488;50.846;4.078;2023-03-09T12:06:46;24.70;;;10.50;;
20657;SDS011;10488;50.846;4.078;2023-03-09T12:09:20;30.92;;;10.05;;
20657;SDS011;10488;50.846;4.078;2023-03-09T12:11:52;26.25;;;7.38;;
20657;SDS011;10488;50.846;4.078;2023-03-09T12:14:22;16.92;;;7.38;;
20657;SDS011;10488;50.846;4.078;2023-03-09T12:16:56;20.70;;;5.78;;
20657;SDS011;10488;50.846;4.078;2023-03-09T12:19:28;17.50;;;5.07;;
20657;SDS011;10488;50.846;4.078;2023-03-09T12:21:58;30.70;;;4.97;;
20657;SDS011;10488;50.846;4.078;2023-03-09T12:24:28;23.48;;;4.22;;
20657;SDS011;10488;50.846;4.078;2023-03-09T12:29:46;21.40;;;4.97;;
20657;SDS011;10488;50.846;4.078;2023-03-09T12:34:57;18.80;;;3.88;;
20657;SDS011;10488;50.846;4.078;2023-03-09T12:42:41;22.70;;;5.00;;
20657;SDS011;10488;50.846;4.078;2023-03-09T12:47:47;18.10;;;4.05;;
20657;SDS011;10488;50.846;4.078;2023-03-09T13:03:17;21.00;;;4.80;;
20657;SDS011;10488;50.846;4.078;2023-03-09T13:05:50;23.35;;;4.03;;
20657;SDS011;10488;50.846;4.078;2023-03-09T13:10:46;24.48;;;4.82;;
20657;SDS011;10488;50.846;4.078;2023-03-09T13:29:31;20.65;;;4.07;;
20657;SDS011;10488;50.846;4.078;2023-03-09T13:31:58;19.02;;;3.90;;
20657;SDS011;10488;50.846;4.078;2023-03-09T13:34:25;25.88;;;4.03;;
20657;SDS011;10488;50.846;4.078;2023-03-09T13:37:07;17.98;;;4.40;;
20657;SDS011;10488;50.846;4.078;2023-03-09T13:39:39;19.25;;;3.35;;
20657;SDS011;10488;50.846;4.078;2023-03-09T13:42:20;21.45;;;3.75;;
20657;SDS011;10488;50.846;4.078;2023-03-09T13:44:46;20.38;;;3.78;;
20657;SDS011;10488;50.846;4.078;2023-03-09T13:47:17;23.92;;;3.83;;
20657;SDS011;10488;50.846;4.078;2023-03-09T13:49:48;18.27;;;4.13;;
20657;SDS011;10488;50.846;4.078;2023-03-09T13:52:14;21.40;;;3.80;;
20657;SDS011;10488;50.846;4.078;2023-03-09T13:54:48;14.18;;;3.53;;
20657;SDS011;10488;50.846;4.078;2023-03-09T13:57:23;20.45;;;4.15;;
20657;SDS011;10488;50.846;4.078;2023-03-09T13:59:57;20.17;;;4.40;;
20657;SDS011;10488;50.846;4.078;2023-03-09T14:02:31;19.00;;;3.80;;
20657;SDS011;10488;50.846;4.078;2023-03-09T14:07:31;20.45;;;3.85;;
20657;SDS011;10488;50.846;4.078;2023-03-09T14:10:23;20.75;;;3.28;;
20657;SDS011;10488;50.846;4.078;2023-03-09T14:13:01;21.30;;;3.90;;
20657;SDS011;10488;50.846;4.078;2023-03-09T14:15:30;14.57;;;3.92;;
20657;SDS011;10488;50.846;4.078;2023-03-09T14:17:56;13.63;;;3.22;;
20657;SDS011;10488;50.846;4.078;2023-03-09T14:20:25;18.83;;;2.92;;
20657;SDS011;10488;50.846;4.078;2023-03-09T14:22:51;22.48;;;3.83;;
20657;SDS011;10488;50.846;4.078;2023-03-09T14:27:49;18.52;;;3.70;;
20657;SDS011;10488;50.846;4.078;2023-03-09T14:30:31;16.75;;;3.70;;
20657;SDS011;10488;50.846;4.078;2023-03-09T14:33:20;20.08;;;3.60;;
20657;SDS011;10488;50.846;4.078;2023-03-09T14:35:50;19.10;;;4.32;;
20657;SDS011;10488;50.846;4.078;2023-03-09T14:38:29;16.50;;;3.67;;
20657;SDS011;10488;50.846;4.078;2023-03-09T14:41:02;19.60;;;4.05;;
20657;SDS011;10488;50.846;4.078;2023-03-09T14:43:38;22.17;;;4.45;;
20657;SDS011;10488;50.846;4.078;2023-03-09T14:46:16;17.17;;;4.05;;
20657;SDS011;10488;50.846;4.078;2023-03-09T14:51:13;17.73;;;3.95;;
20657;SDS011;10488;50.846;4.078;2023-03-09T14:54:15;15.85;;;3.83;;
20657;SDS011;10488;50.846;4.078;2023-03-09T14:56:36;17.67;;;4.45;;
20657;SDS011;10488;50.846;4.078;2023-03-09T14:59:12;17.05;;;3.55;;
20657;SDS011;10488;50.846;4.078;2023-03-09T15:01:40;18.08;;;3.85;;
20657;SDS011;10488;50.846;4.078;2023-03-09T15:04:17;19.10;;;5.60;;
20657;SDS011;10488;50.846;4.078;2023-03-09T15:06:44;20.58;;;4.63;;
20657;SDS011;10488;50.846;4.078;2023-03-09T15:09:11;21.75;;;3.95;;
20657;SDS011;10488;50.846;4.078;2023-03-09T15:11:38;23.83;;;3.88;;
20657;SDS011;10488;50.846;4.078;2023-03-09T15:14:08;25.60;;;4.60;;
20657;SDS011;10488;50.846;4.078;2023-03-09T15:16:53;19.02;;;3.63;;
20657;SDS011;10488;50.846;4.078;2023-03-09T15:19:19;18.45;;;3.40;;
20657;SDS011;10488;50.846;4.078;2023-03-09T15:21:46;15.07;;;3.47;;
20657;SDS011;10488;50.846;4.078;2023-03-09T15:24:12;21.27;;;3.83;;
20657;SDS011;10488;50.846;4.078;2023-03-09T15:26:39;26.17;;;4.35;;
20657;SDS011;10488;50.846;4.078;2023-03-09T15:29:05;22.40;;;4.65;;
20657;SDS011;10488;50.846;4.078;2023-03-09T15:31:31;18.35;;;4.30;;
20657;SDS011;10488;50.846;4.078;2023-03-09T15:33:57;15.63;;;3.53;;
20657;SDS011;10488;50.846;4.078;2023-03-09T15:36:23;20.20;;;4.28;;
20657;SDS011;10488;50.846;4.078;2023-03-09T15:38:50;21.50;;;3.15;;
20657;SDS011;10488;50.846;4.078;2023-03-09T15:41:16;21.30;;;3.70;;
20657;SDS011;10488;50.846;4.078;2023-03-09T15:43:42;16.40;;;3.47;;
20657;SDS011;10488;50.846;4.078;2023-03-09T15:46:07;22.63;;;3.88;;
20657;SDS011;10488;50.846;4.078;2023-03-09T15:48:33;19.50;;;3.50;;
20657;SDS011;10488;50.846;4.078;2023-03-09T15:51:00;20.88;;;3.55;;
20657;SDS011;10488;50.846;4.078;2023-03-09T15:53:26;20.17;;;4.18;;
20657;SDS011;10488;50.846;4.078;2023-03-09T15:55:55;24.63;;;4.32;;
20657;SDS011;10488;50.846;4.078;2023-03-09T15:58:25;19.33;;;3.28;;
20657;SDS011;10488;50.846;4.078;2023-03-09T16:00:56;14.73;;;3.83;;